createdAt,value
2019-03-05T00:01:47.262Z,2.67
2019-03-05T00:04:15.497Z,1.82
2019-03-05T00:06:43.716Z,3.40
2019-03-05T00:09:13.589Z,2.25
2019-03-05T00:11:41.833Z,2.50
2019-03-05T00:14:10.068Z,2.55
2019-03-05T00:16:38.334Z,3.25
2019-03-05T00:19:06.557Z,2.50
2019-03-05T00:21:34.812Z,2.42
2019-03-05T00:24:39.871Z,2.47
2019-03-05T00:27:08.119Z,2.12
2019-03-05T00:29:45.075Z,2.58
2019-03-05T00:32:13.291Z,2.03
2019-03-05T00:34:59.838Z,2.50
2019-03-05T00:37:31.324Z,1.95
2019-03-05T00:40:17.334Z,2.23
2019-03-05T00:43:00.808Z,2.02
2019-03-05T00:45:37.769Z,2.42
2019-03-05T00:48:17.501Z,2.30
2019-03-05T00:50:54.992Z,1.87
2019-03-05T00:53:55.128Z,2.75
2019-03-05T00:56:38.239Z,2.43
2019-03-05T00:59:33.610Z,2.25
2019-03-05T01:02:11.135Z,3.65
2019-03-05T01:05:03.915Z,2.10
2019-03-05T01:07:32.226Z,2.52
2019-03-05T01:10:00.483Z,2.33
2019-03-05T01:12:29.002Z,2.47
2019-03-05T01:14:58.863Z,2.20
2019-03-05T01:17:27.112Z,2.22
2019-03-05T01:19:55.369Z,2.05
2019-03-05T01:22:23.613Z,1.77
2019-03-05T01:24:51.830Z,1.65
2019-03-05T01:27:20.059Z,1.82
2019-03-05T01:29:48.278Z,2.47
2019-03-05T01:32:18.167Z,1.87
2019-03-05T01:34:57.000Z,2.25
2019-03-05T01:37:25.466Z,1.82
2019-03-05T01:39:55.350Z,1.50
2019-03-05T01:42:23.576Z,1.30
2019-03-05T01:44:51.819Z,1.62
2019-03-05T01:47:20.140Z,1.20
2019-03-05T01:49:49.291Z,1.40
2019-03-05T01:52:17.534Z,1.17
2019-03-05T01:54:45.775Z,1.50
2019-03-05T01:57:14.001Z,1.30
2019-03-05T01:59:42.269Z,1.52
2019-03-05T02:02:10.683Z,1.50
2019-03-05T02:04:38.916Z,1.17
2019-03-05T02:07:07.221Z,1.40
2019-03-05T02:09:35.442Z,1.40
2019-03-05T02:12:03.669Z,1.47
2019-03-05T02:14:31.894Z,1.50
2019-03-05T02:17:00.145Z,1.55
2019-03-05T02:19:42.360Z,1.80
2019-03-05T02:22:19.692Z,1.47
2019-03-05T02:25:14.738Z,2.27
2019-03-05T02:28:06.858Z,1.85
2019-03-05T02:30:53.144Z,1.40
2019-03-05T02:33:44.769Z,1.46
2019-03-05T02:36:25.014Z,1.40
2019-03-05T02:39:11.397Z,1.50
2019-03-05T02:41:51.871Z,1.52
2019-03-05T02:44:29.487Z,1.23
2019-03-05T02:47:03.982Z,1.50
2019-03-05T02:49:47.364Z,1.62
2019-03-05T02:52:24.605Z,1.65
2019-03-05T02:55:11.534Z,1.50
2019-03-05T02:57:38.930Z,1.72
2019-03-05T03:00:10.717Z,1.90
2019-03-05T03:02:40.649Z,1.80
2019-03-05T03:05:16.783Z,1.92
2019-03-05T03:07:45.018Z,1.92
2019-03-05T03:10:18.416Z,2.17
2019-03-05T03:12:46.643Z,2.17
2019-03-05T03:15:14.864Z,2.02
2019-03-05T03:17:46.400Z,1.90
2019-03-05T03:20:15.471Z,1.82
2019-03-05T03:22:43.703Z,2.12
2019-03-05T03:25:14.875Z,1.90
2019-03-05T03:27:43.242Z,2.35
2019-03-05T03:30:13.713Z,2.30
2019-03-05T03:32:41.920Z,2.50
2019-03-05T03:35:11.795Z,1.85
2019-03-05T03:37:40.006Z,2.05
2019-03-05T03:40:11.667Z,2.12
2019-03-05T03:42:39.891Z,2.40
2019-03-05T03:45:11.219Z,2.33
2019-03-05T03:50:07.356Z,1.82
2019-03-05T03:52:35.585Z,2.05
2019-03-05T03:55:04.261Z,1.90
2019-03-05T03:57:32.481Z,2.30
2019-03-05T04:00:00.950Z,1.92
2019-03-05T04:02:29.188Z,2.22
2019-03-05T04:04:57.734Z,1.80
2019-03-05T04:07:25.993Z,2.00
2019-03-05T04:09:54.227Z,1.70
2019-03-05T04:12:22.457Z,1.92
2019-03-05T04:14:50.709Z,2.02
2019-03-05T04:17:18.919Z,2.02
2019-03-05T04:19:47.169Z,2.42
2019-03-05T04:22:15.397Z,2.17
2019-03-05T04:24:43.621Z,2.20
2019-03-05T04:27:11.859Z,2.40
2019-03-05T04:29:40.077Z,2.20
2019-03-05T04:32:08.307Z,2.67
2019-03-05T04:34:36.537Z,2.30
2019-03-05T04:37:04.774Z,2.17
2019-03-05T04:39:32.982Z,2.45
2019-03-05T04:42:01.285Z,1.92
2019-03-05T04:44:31.891Z,2.38
2019-03-05T04:47:00.385Z,2.48
2019-03-05T04:49:32.965Z,2.10
2019-03-05T04:52:02.913Z,2.00
2019-03-05T04:54:31.127Z,2.47
2019-03-05T04:56:59.361Z,2.02
2019-03-05T04:59:27.587Z,2.55
2019-03-05T05:01:55.830Z,2.20
2019-03-05T05:04:24.051Z,2.30
2019-03-05T05:06:52.311Z,2.20
2019-03-05T05:09:20.535Z,2.47
2019-03-05T05:11:48.793Z,2.20
2019-03-05T05:14:17.014Z,2.08
2019-03-05T05:16:45.240Z,2.67
2019-03-05T05:19:13.471Z,2.27
2019-03-05T05:21:41.693Z,1.92
2019-03-05T05:24:10.002Z,1.80
2019-03-05T05:26:38.226Z,2.47
2019-03-05T05:29:06.462Z,1.82
2019-03-05T05:31:34.709Z,2.30
2019-03-05T05:34:03.232Z,2.02
2019-03-05T05:36:31.434Z,2.00
2019-03-05T05:38:59.700Z,1.72
2019-03-05T05:41:27.940Z,2.17
2019-03-05T05:43:56.156Z,2.33
2019-03-05T05:46:24.392Z,1.60
2019-03-05T05:48:52.630Z,2.08
2019-03-05T05:51:20.865Z,2.13
2019-03-05T05:53:49.192Z,1.80
2019-03-05T05:56:17.456Z,1.85
2019-03-05T05:58:45.697Z,2.20
2019-03-05T06:01:13.941Z,2.05
2019-03-05T06:03:42.166Z,1.70
2019-03-05T06:06:10.423Z,2.23
2019-03-05T06:08:38.648Z,2.20
2019-03-05T06:11:06.860Z,2.08
2019-03-05T06:13:35.687Z,2.37
2019-03-05T06:16:03.903Z,1.90
2019-03-05T06:18:32.142Z,2.30
2019-03-05T06:21:00.377Z,2.10
2019-03-05T06:23:28.608Z,2.27
2019-03-05T06:25:56.830Z,2.80
2019-03-05T06:28:25.068Z,2.45
2019-03-05T06:30:53.288Z,2.37
2019-03-05T06:33:21.539Z,3.30
2019-03-05T06:35:49.760Z,2.30
2019-03-05T06:38:18.001Z,2.08
2019-03-05T06:40:46.244Z,1.70
2019-03-05T06:43:14.480Z,1.90
2019-03-05T06:45:42.718Z,1.65
2019-03-05T06:48:10.982Z,1.62
2019-03-05T06:50:39.199Z,1.87
2019-03-05T06:53:08.227Z,1.76
2019-03-05T06:55:36.518Z,1.95
2019-03-05T06:58:04.744Z,1.98
2019-03-05T07:00:42.611Z,1.90
2019-03-05T07:03:10.855Z,2.27
2019-03-05T07:06:15.475Z,2.25
2019-03-05T07:08:52.806Z,1.90
2019-03-05T07:11:48.282Z,3.15
2019-03-05T07:14:43.150Z,3.17
2019-03-05T07:17:17.423Z,3.27
2019-03-05T07:20:05.164Z,3.35
2019-03-05T07:22:45.529Z,3.20
2019-03-05T07:25:13.778Z,3.40
2019-03-05T07:27:42.008Z,3.12
2019-03-05T07:30:13.839Z,3.40
2019-03-05T07:32:42.074Z,3.33
2019-03-05T07:35:15.700Z,2.86
2019-03-05T07:37:43.989Z,3.05
2019-03-05T07:40:14.232Z,2.95
2019-03-05T07:42:42.491Z,3.03
2019-03-05T07:45:12.050Z,3.10
2019-03-05T07:47:40.308Z,3.17
2019-03-05T07:50:10.889Z,2.90
2019-03-05T07:52:39.132Z,3.47
2019-03-05T07:55:13.781Z,3.10
2019-03-05T07:57:40.363Z,2.95
2019-03-05T08:00:13.966Z,3.30
2019-03-05T08:02:42.427Z,2.70
2019-03-05T08:05:12.607Z,3.50
2019-03-05T08:07:40.866Z,3.50
2019-03-05T08:10:21.165Z,3.20
2019-03-05T08:13:16.795Z,3.37
2019-03-05T08:16:11.852Z,2.95
2019-03-05T08:18:40.099Z,3.67
2019-03-05T08:21:08.375Z,3.22
2019-03-05T08:23:36.606Z,3.45
2019-03-05T08:26:04.854Z,3.80
2019-03-05T08:28:33.075Z,2.58
2019-03-05T08:31:01.310Z,3.17
2019-03-05T08:33:29.520Z,3.27
2019-03-05T08:35:57.739Z,3.45
2019-03-05T08:38:25.978Z,2.67
2019-03-05T08:40:54.230Z,3.10
2019-03-05T08:43:22.488Z,3.50
2019-03-05T08:45:50.695Z,3.00
2019-03-05T08:48:18.931Z,3.50
2019-03-05T08:50:47.172Z,3.80
2019-03-05T08:53:15.653Z,3.74
2019-03-05T08:55:43.947Z,3.50
2019-03-05T08:58:12.200Z,3.60
2019-03-05T09:00:40.422Z,3.02
2019-03-05T09:03:08.671Z,3.27
2019-03-05T09:05:36.939Z,3.60
2019-03-05T09:08:06.179Z,3.08
2019-03-05T09:10:34.413Z,3.30
2019-03-05T09:13:02.622Z,3.50
2019-03-05T09:15:30.892Z,3.10
2019-03-05T09:17:59.137Z,3.33
2019-03-05T09:20:27.359Z,3.47
2019-03-05T09:22:55.649Z,3.30
2019-03-05T09:25:23.916Z,3.45
2019-03-05T09:27:52.200Z,3.30
2019-03-05T09:30:21.387Z,3.50
2019-03-05T09:32:49.685Z,2.87
2019-03-05T09:35:18.277Z,3.40
2019-03-05T09:37:46.580Z,3.10
2019-03-05T09:40:25.855Z,3.25
2019-03-05T09:42:54.090Z,3.30
2019-03-05T09:45:22.315Z,3.15
2019-03-05T09:47:50.615Z,2.50
2019-03-05T09:50:19.797Z,2.84
2019-03-05T09:52:54.907Z,2.60
2019-03-05T09:55:20.541Z,2.67
2019-03-05T09:58:06.901Z,2.57
2019-03-05T10:00:26.852Z,2.40
2019-03-05T10:02:55.218Z,2.20
2019-03-05T10:05:23.737Z,2.90
2019-03-05T10:07:52.075Z,2.30
2019-03-05T10:10:25.927Z,1.92
2019-03-05T10:12:54.315Z,2.02
2019-03-05T10:15:23.064Z,1.85
2019-03-05T10:17:51.388Z,2.10
2019-03-05T10:20:24.298Z,1.80
2019-03-05T10:22:52.719Z,1.75
2019-03-05T10:25:23.269Z,2.17
2019-03-05T10:27:51.710Z,2.45
2019-03-05T10:30:25.150Z,1.85
2019-03-05T10:32:52.587Z,1.87
2019-03-05T10:37:44.064Z,1.70
2019-03-05T10:40:20.966Z,2.15
2019-03-05T10:42:49.219Z,1.60
2019-03-05T10:45:18.901Z,1.60
2019-03-05T10:47:49.377Z,1.95
2019-03-05T10:50:20.250Z,1.70
2019-03-05T10:52:48.831Z,1.42
2019-03-05T10:55:25.861Z,1.42
2019-03-05T10:57:47.044Z,1.57
2019-03-05T11:00:38.791Z,1.95
2019-03-05T11:03:07.053Z,1.95
2019-03-05T11:05:37.137Z,1.77
2019-03-05T11:08:07.193Z,1.35
2019-03-05T11:10:35.599Z,1.55
2019-03-05T11:13:07.356Z,1.40
2019-03-05T11:15:36.255Z,1.50
2019-03-05T11:18:07.778Z,1.37
2019-03-05T11:23:03.970Z,1.70
2019-03-05T11:25:32.233Z,1.80
2019-03-05T11:28:00.478Z,2.00
2019-03-05T11:30:36.366Z,2.13
2019-03-05T11:33:04.599Z,2.05
2019-03-05T11:35:33.597Z,1.73
2019-03-05T11:38:01.929Z,2.02
2019-03-05T11:40:30.481Z,1.70
2019-03-05T11:43:00.357Z,1.80
2019-03-05T11:45:29.234Z,1.60
2019-03-05T11:47:57.588Z,2.15
2019-03-05T11:50:25.970Z,1.60
2019-03-05T11:52:58.739Z,1.70
2019-03-05T11:55:28.520Z,1.70
2019-03-05T11:57:57.479Z,1.47
2019-03-05T12:00:48.481Z,1.80
2019-03-05T12:03:16.833Z,1.45
2019-03-05T12:05:45.089Z,1.50
2019-03-05T12:08:13.341Z,1.30
2019-03-05T12:10:41.594Z,1.62
2019-03-05T12:13:09.908Z,2.02
2019-03-05T12:15:39.887Z,2.00
2019-03-05T12:18:08.143Z,1.20
2019-03-05T12:20:36.387Z,1.40
2019-03-05T12:23:06.701Z,1.45
2019-03-05T12:25:36.141Z,1.50
2019-03-05T12:28:10.158Z,1.60
2019-03-05T12:30:35.343Z,1.37
2019-03-05T12:33:03.599Z,1.72
2019-03-05T12:35:31.896Z,1.37
2019-03-05T12:38:00.170Z,1.10
2019-03-05T12:40:28.591Z,1.07
2019-03-05T12:42:56.879Z,1.15
2019-03-05T12:45:25.420Z,1.42
2019-03-05T12:47:53.661Z,0.93
2019-03-05T12:50:27.220Z,1.00
2019-03-05T12:52:56.237Z,1.00
2019-03-05T12:55:24.584Z,1.17
2019-03-05T12:57:52.826Z,1.10
2019-03-05T13:00:27.888Z,0.70
2019-03-05T13:02:56.602Z,1.27
2019-03-05T13:05:24.853Z,0.80
2019-03-05T13:07:56.630Z,1.05
2019-03-05T13:10:34.917Z,1.80
2019-03-05T13:13:00.281Z,0.80
2019-03-05T13:15:35.108Z,1.00
2019-03-05T13:18:03.413Z,0.78
2019-03-05T13:20:32.572Z,0.80
2019-03-05T13:23:00.853Z,0.82
2019-03-05T13:25:29.945Z,1.40
2019-03-05T13:28:02.129Z,0.88
2019-03-05T13:30:30.478Z,1.17
2019-03-05T13:33:00.552Z,1.00
2019-03-05T13:35:30.316Z,0.97
2019-03-05T13:38:07.488Z,0.80
2019-03-05T13:40:38.090Z,0.70
2019-03-05T13:43:04.152Z,1.10
2019-03-05T13:45:32.409Z,1.10
2019-03-05T13:48:09.770Z,0.95
2019-03-05T13:51:02.361Z,1.10
2019-03-05T13:53:45.567Z,1.12
2019-03-05T13:56:42.349Z,1.32
2019-03-05T13:59:34.439Z,1.00
2019-03-05T14:02:02.786Z,1.07
2019-03-05T14:04:50.972Z,0.98
2019-03-05T14:07:44.726Z,1.20
2019-03-05T14:10:12.978Z,1.07
2019-03-05T14:12:42.661Z,1.00
2019-03-05T14:15:15.252Z,0.90
2019-03-05T14:17:44.801Z,1.25
2019-03-05T14:20:15.777Z,0.90
2019-03-05T14:22:47.117Z,1.10
2019-03-05T14:25:19.067Z,1.10
2019-03-05T14:27:48.956Z,1.07
2019-03-05T14:30:24.676Z,1.00
2019-03-05T14:32:53.121Z,1.20
2019-03-05T14:35:22.998Z,1.15
2019-03-05T14:37:58.729Z,1.10
2019-03-05T14:40:30.038Z,1.15
2019-03-05T14:42:59.207Z,1.00
2019-03-05T14:45:30.157Z,1.25
2019-03-05T14:48:04.247Z,1.10
2019-03-05T14:50:35.300Z,1.25
2019-03-05T14:53:13.501Z,1.10
2019-03-05T14:55:41.774Z,1.52
2019-03-05T14:58:10.546Z,1.62
2019-03-05T15:00:42.457Z,1.44
2019-03-05T15:03:12.695Z,1.20
2019-03-05T15:05:49.701Z,1.20
2019-03-05T15:08:17.915Z,1.17
2019-03-05T15:10:55.077Z,1.07
2019-03-05T15:13:28.923Z,1.07
2019-03-05T15:15:58.775Z,1.07
2019-03-05T15:18:27.299Z,1.05
2019-03-05T15:20:55.735Z,1.10
2019-03-05T15:23:24.808Z,0.98
2019-03-05T15:25:54.929Z,1.15
2019-03-05T15:28:25.496Z,1.10
2019-03-05T15:31:02.940Z,1.27
2019-03-05T15:33:33.938Z,1.30
2019-03-05T15:36:04.957Z,1.00
2019-03-05T15:38:34.343Z,1.55
2019-03-05T15:41:06.759Z,1.30
2019-03-05T15:43:41.178Z,1.00
2019-03-05T15:46:11.183Z,1.20
2019-03-05T15:48:41.283Z,1.50
2019-03-05T15:51:12.207Z,1.10
2019-03-05T15:56:15.143Z,1.12
2019-03-05T15:58:43.421Z,1.15
2019-03-05T16:01:21.926Z,1.15
2019-03-05T16:03:47.410Z,1.30
2019-03-05T16:06:15.667Z,1.30
2019-03-05T16:08:47.435Z,1.20
2019-03-05T16:11:18.749Z,1.10
2019-03-05T16:13:56.434Z,1.30
2019-03-05T16:16:28.269Z,1.10
2019-03-05T16:19:02.347Z,1.25
2019-03-05T16:21:32.302Z,1.60
2019-03-05T16:24:02.843Z,1.17
2019-03-05T16:29:07.891Z,1.32
2019-03-05T16:31:45.322Z,1.22
2019-03-05T16:34:27.686Z,1.35
2019-03-05T16:37:16.748Z,1.30
2019-03-05T16:42:53.653Z,1.15
2019-03-05T16:45:23.547Z,1.25
2019-03-05T16:47:53.509Z,1.40
2019-03-05T16:50:23.412Z,1.25
2019-03-05T16:53:02.320Z,1.13
2019-03-05T16:55:34.783Z,1.35
2019-03-05T16:58:21.092Z,1.80
2019-03-05T17:00:54.095Z,1.82
2019-03-05T17:03:26.648Z,1.40
2019-03-05T17:05:56.554Z,1.00
2019-03-05T17:08:38.369Z,1.40
2019-03-05T17:11:10.737Z,1.30
2019-03-05T17:13:38.970Z,1.55
2019-03-05T17:16:07.191Z,2.55
2019-03-05T17:18:35.655Z,2.50
2019-03-05T17:21:03.906Z,1.60
2019-03-05T17:23:32.186Z,1.30
2019-03-05T17:26:00.460Z,1.52
2019-03-05T17:28:28.697Z,1.67
2019-03-05T17:30:56.962Z,1.35
2019-03-05T17:33:25.210Z,2.00
2019-03-05T17:35:53.473Z,1.37
2019-03-05T17:38:21.708Z,1.67
2019-03-05T17:40:49.969Z,1.37
2019-03-05T17:43:18.948Z,1.60
2019-03-05T17:45:47.208Z,1.70
2019-03-05T17:48:15.463Z,1.70
2019-03-05T17:50:43.728Z,1.90
2019-03-05T17:53:11.972Z,2.00
2019-03-05T17:55:40.251Z,2.10
2019-03-05T17:58:08.544Z,1.70
2019-03-05T18:00:41.147Z,1.75
2019-03-05T18:03:09.412Z,2.37
2019-03-05T18:05:37.643Z,1.82
2019-03-05T18:08:06.197Z,1.82
2019-03-05T18:10:34.435Z,1.77
2019-03-05T18:13:02.716Z,1.70
2019-03-05T18:15:31.142Z,1.87
2019-03-05T18:17:59.412Z,1.52
2019-03-05T18:20:27.691Z,1.92
2019-03-05T18:22:55.943Z,2.12
2019-03-05T18:25:24.284Z,2.08
2019-03-05T18:27:52.530Z,1.60
2019-03-05T18:30:26.644Z,2.00
2019-03-05T18:32:55.164Z,1.90
2019-03-05T18:35:23.413Z,1.87
2019-03-05T18:37:52.355Z,1.92
2019-03-05T18:40:21.622Z,1.87
2019-03-05T18:42:49.876Z,1.75
2019-03-05T18:45:24.214Z,1.85
2019-03-05T18:47:52.853Z,2.06
2019-03-05T18:50:21.758Z,2.52
2019-03-05T18:52:51.852Z,1.80
2019-03-05T18:55:24.355Z,1.80
2019-03-05T18:57:53.508Z,1.95
2019-03-05T19:00:25.267Z,2.20
2019-03-05T19:03:08.207Z,1.92
2019-03-05T19:05:36.806Z,2.52
2019-03-05T19:08:05.115Z,2.80
2019-03-05T19:10:33.365Z,2.90
2019-03-05T19:13:01.615Z,2.45
2019-03-05T19:15:30.129Z,2.55
2019-03-05T19:17:58.371Z,2.85
2019-03-05T19:20:28.000Z,2.80
2019-03-05T19:22:56.219Z,2.25
2019-03-05T19:25:29.791Z,2.92
2019-03-05T19:27:58.035Z,2.40
2019-03-05T19:30:32.312Z,2.40
2019-03-05T19:33:00.926Z,2.17
2019-03-05T19:35:29.314Z,2.55
2019-03-05T19:37:58.057Z,2.65
2019-03-05T19:40:37.756Z,2.58
2019-03-05T19:43:06.598Z,2.22
2019-03-05T19:45:34.961Z,2.70
2019-03-05T19:48:03.195Z,2.10
2019-03-05T19:50:31.514Z,2.90
2019-03-05T19:52:59.915Z,2.70
2019-03-05T19:55:29.188Z,2.45
2019-03-05T19:58:10.648Z,3.08
2019-03-05T20:03:15.353Z,2.83
2019-03-05T20:05:43.888Z,2.90
2019-03-05T20:08:12.144Z,3.53
2019-03-05T20:10:40.396Z,2.75
2019-03-05T20:13:08.643Z,3.10
2019-03-05T20:15:37.021Z,2.72
2019-03-05T20:18:07.287Z,3.12
2019-03-05T20:20:35.980Z,3.27
2019-03-05T20:23:04.608Z,3.00
2019-03-05T20:25:32.937Z,2.62
2019-03-05T20:28:01.190Z,3.12
2019-03-05T20:30:29.434Z,3.22
2019-03-05T20:32:57.751Z,3.27
2019-03-05T20:35:26.017Z,2.90
2019-03-05T20:37:54.459Z,2.85
2019-03-05T20:40:29.576Z,2.75
2019-03-05T20:42:57.858Z,2.58
2019-03-05T20:45:41.059Z,3.25
2019-03-05T20:48:09.628Z,2.75
2019-03-05T20:50:37.871Z,3.20
2019-03-05T20:53:06.124Z,2.70
2019-03-05T20:55:34.392Z,3.27
2019-03-05T20:58:02.707Z,3.25
2019-03-05T21:00:36.279Z,3.08
2019-03-05T21:03:06.798Z,3.10
2019-03-05T21:05:37.202Z,2.60
2019-03-05T21:08:05.531Z,2.60
2019-03-05T21:10:33.750Z,2.90
2019-03-05T21:13:02.796Z,2.75
2019-03-05T21:15:33.051Z,2.72
2019-03-05T21:18:02.730Z,2.50
2019-03-05T21:20:31.890Z,2.47
2019-03-05T21:23:00.165Z,3.00
2019-03-05T21:25:28.674Z,2.40
2019-03-05T21:27:56.916Z,3.83
2019-03-05T21:30:26.513Z,3.02
2019-03-05T21:32:54.834Z,3.45
2019-03-05T21:35:23.171Z,3.27
2019-03-05T21:37:51.779Z,5.33
2019-03-05T21:40:24.433Z,3.40
2019-03-05T21:42:52.847Z,2.95
2019-03-05T21:45:24.374Z,2.95
2019-03-05T21:47:52.637Z,2.75
2019-03-05T21:50:20.866Z,2.35
2019-03-05T21:52:49.109Z,2.70
2019-03-05T21:55:17.415Z,2.65
2019-03-05T21:57:45.672Z,2.90
2019-03-05T22:00:20.063Z,3.08
2019-03-05T22:02:48.300Z,3.35
2019-03-05T22:05:16.551Z,2.58
2019-03-05T22:07:44.811Z,2.70
2019-03-05T22:10:15.562Z,3.17
2019-03-05T22:12:43.871Z,2.35
2019-03-05T22:15:14.478Z,2.92
2019-03-05T22:17:42.703Z,2.90
2019-03-05T22:20:13.542Z,2.75
2019-03-05T22:22:41.802Z,3.77
2019-03-05T22:25:18.351Z,2.85
2019-03-05T22:27:46.608Z,3.00
2019-03-05T22:30:22.612Z,3.47
2019-03-05T22:32:50.927Z,3.30
2019-03-05T22:35:19.322Z,3.52
2019-03-05T22:37:47.631Z,4.17
2019-03-05T22:40:17.732Z,4.50
2019-03-05T22:42:45.965Z,4.83
2019-03-05T22:45:18.903Z,6.00
2019-03-05T22:47:49.483Z,7.92
2019-03-05T22:50:17.369Z,8.78
2019-03-05T22:52:45.686Z,8.95
2019-03-05T22:55:15.262Z,9.63
2019-03-05T22:57:43.645Z,8.45
2019-03-05T23:00:31.839Z,7.58
2019-03-05T23:03:01.040Z,5.65
2019-03-05T23:05:29.350Z,4.92
2019-03-05T23:07:57.591Z,3.95
2019-03-05T23:10:25.878Z,4.47
2019-03-05T23:12:54.169Z,3.87
2019-03-05T23:15:22.434Z,3.87
2019-03-05T23:17:50.669Z,4.17
2019-03-05T23:20:18.910Z,3.72
2019-03-05T23:22:47.218Z,3.58
2019-03-05T23:25:16.615Z,4.35
2019-03-05T23:27:44.874Z,3.60
2019-03-05T23:30:18.499Z,3.75
2019-03-05T23:32:54.131Z,3.60
2019-03-05T23:35:22.386Z,3.85
2019-03-05T23:37:50.683Z,4.05
2019-03-05T23:40:18.956Z,3.42
2019-03-05T23:42:47.198Z,4.50
2019-03-05T23:45:19.044Z,4.47
2019-03-05T23:47:47.279Z,4.20
2019-03-05T23:50:17.460Z,4.28
2019-03-05T23:52:45.711Z,4.30
2019-03-05T23:55:14.420Z,4.30
2019-03-05T23:57:42.904Z,4.25
